Time;durP1;ratioP1;P1;durP2;ratioP2;P2;SDS_P1;SDS_P2;PMS_P1;PMS_P2;Temp;Humidity;BMP_temperature;BMP_pressure;BME280_temperature;BME280_humidity;BME280_pressure;Samples;Min_cycle;Max_cycle;Signal;HPM_P1;HPM_P2
2022/08/15 00:00:55;;;;;;;31.60;28.20;;;;;;;19.12;100.00;98142.72;105206;1269;61342;-75
2022/08/15 00:03:27;;;;;;;32.90;29.30;;;;;;;19.11;100.00;98134.88;105221;1270;61322;-71
2022/08/15 00:06:00;;;;;;;30.90;27.70;;;;;;;19.10;100.00;98131.34;105286;1271;75871;-72
2022/08/15 00:08:29;;;;;;;30.10;26.90;;;;;;;19.10;100.00;98134.66;105293;1271;69230;-73
2022/08/15 00:11:07;;;;;;;30.80;27.60;;;;;;;19.08;100.00;98133.25;105341;1270;74423;-74
2022/08/15 00:13:34;;;;;;;31.60;28.50;;;;;;;19.06;100.00;98131.13;105262;1271;61375;-71
2022/08/15 00:16:01;;;;;;;31.50;28.10;;;;;;;19.04;100.00;98132.59;105324;1269;61787;-72
2022/08/15 00:18:28;;;;;;;30.20;26.90;;;;;;;19.01;100.00;98131.88;105243;1271;76164;-72
2022/08/15 00:20:55;;;;;;;29.60;26.60;;;;;;;18.99;100.00;98121.86;104921;1271;70111;-72
2022/08/15 00:23:24;;;;;;;29.50;26.50;;;;;;;18.96;100.00;98124.14;105188;1271;73369;-72
2022/08/15 00:25:58;;;;;;;31.30;27.20;;;;;;;18.94;100.00;98130.83;105248;1271;61358;-72
2022/08/15 00:28:27;;;;;;;29.20;26.20;;;;;;;18.92;100.00;98125.58;105240;1271;61325;-73
2022/08/15 00:30:53;;;;;;;29.20;26.20;;;;;;;18.90;100.00;98124.52;105210;1271;75770;-72
2022/08/15 00:33:20;;;;;;;30.90;27.90;;;;;;;18.88;100.00;98126.17;105218;1271;69501;-73
2022/08/15 00:35:50;;;;;;;30.60;27.10;;;;;;;18.85;100.00;98125.01;105221;1271;74053;-73
2022/08/15 00:38:23;;;;;;;30.80;27.60;;;;;;;18.83;100.00;98127.40;105197;1269;61251;-72
2022/08/15 00:43:48;;;;;;;27.70;24.90;;;;;;;18.80;100.00;98121.86;105067;1268;76099;-73
2022/08/15 00:46:16;;;;;;;29.90;26.70;;;;;;;18.78;100.00;98118.64;105201;1268;69339;-72
2022/08/15 00:48:46;;;;;;;29.00;26.00;;;;;;;18.77;100.00;98118.80;105137;1271;73827;-72
2022/08/15 00:51:20;;;;;;;30.80;26.60;;;;;;;18.74;100.00;98120.55;105206;1268;61272;-72
2022/08/15 00:53:53;;;;;;;30.00;26.60;;;;;;;18.73;100.00;98123.80;105235;1268;61374;-72
2022/08/15 00:56:24;;;;;;;31.00;27.80;;;;;;;18.70;100.00;98125.36;105237;1268;76755;-72
2022/08/15 00:58:51;;;;;;;30.80;27.60;;;;;;;18.68;100.00;98125.23;105238;1268;70398;-72
2022/08/15 01:01:17;;;;;;;30.60;27.50;;;;;;;18.65;100.00;98124.96;104967;1271;73081;-73
2022/08/15 01:03:47;;;;;;;30.10;26.70;;;;;;;18.62;100.00;98122.65;105228;1268;61243;-73
2022/08/15 01:06:14;;;;;;;31.20;27.80;;;;;;;18.59;100.00;98115.21;105282;1268;61343;-73
2022/08/15 01:08:46;;;;;;;32.60;27.60;;;;;;;18.56;100.00;98108.04;105247;1268;75183;-73
2022/08/15 01:11:19;;;;;;;29.20;26.10;;;;;;;18.52;100.00;98111.89;105240;1268;69145;-72
2022/08/15 01:13:47;;;;;;;30.20;27.10;;;;;;;18.49;100.00;98107.73;104968;1271;72566;-74
2022/08/15 01:16:14;;;;;;;29.70;26.00;;;;;;;18.47;100.00;98106.21;105231;1269;61391;-73
2022/08/15 01:18:42;;;;;;;29.80;26.80;;;;;;;18.42;100.00;98105.30;105205;1268;61255;-73
2022/08/15 01:21:31;;;;;;;32.10;28.50;;;;;;;18.39;100.00;98102.41;105285;1268;76263;-73
2022/08/15 01:24:37;;;;;;;31.60;26.70;;;;;;;18.36;100.00;98101.98;105216;1268;70205;-72
2022/08/15 01:27:04;;;;;;;29.50;26.40;;;;;;;18.33;100.00;98100.44;105335;1269;72681;-72
2022/08/15 01:29:32;;;;;;;31.90;27.10;;;;;;;18.31;100.00;98097.20;105259;1268;61265;-72
2022/08/15 01:31:59;;;;;;;30.60;27.10;;;;;;;18.29;100.00;98095.29;105276;1268;61273;-73
2022/08/15 01:34:25;;;;;;;32.60;27.90;;;;;;;18.27;100.00;98093.20;105261;1268;76407;-73
2022/08/15 01:36:52;;;;;;;33.00;29.30;;;;;;;18.26;100.00;98099.29;105226;1271;61250;-72
2022/08/15 01:39:28;;;;;;;30.20;26.90;;;;;;;18.23;100.00;98098.98;105234;1269;74272;-73
2022/08/15 01:42:11;;;;;;;30.60;26.20;;;;;;;18.20;100.00;98098.96;105212;1268;61384;-73
2022/08/15 01:44:43;;;;;;;29.10;26.00;;;;;;;18.18;100.00;98095.09;105229;1268;61351;-73
2022/08/15 01:47:14;;;;;;;30.00;26.70;;;;;;;18.16;100.00;98095.49;105296;1271;76093;-72
2022/08/15 01:49:52;;;;;;;29.40;26.40;;;;;;;18.14;100.00;98092.64;105218;1269;69061;-73
2022/08/15 01:52:22;;;;;;;30.40;26.10;;;;;;;18.12;100.00;98089.03;105212;1269;74158;-72
2022/08/15 01:54:53;;;;;;;31.70;27.70;;;;;;;18.10;100.00;98089.15;105206;1269;61351;-73
2022/08/15 01:57:19;;;;;;;32.50;28.40;;;;;;;18.08;100.00;98091.84;105293;1268;61275;-74
2022/08/15 01:59:58;;;;;;;28.40;25.20;;;;;;;18.07;100.00;98086.09;105227;1268;74669;-72
2022/08/15 02:02:27;;;;;;;31.20;27.80;;;;;;;18.04;100.00;98083.51;105209;1268;69720;-72
2022/08/15 02:04:55;;;;;;;33.80;28.30;;;;;;;18.03;100.00;98086.16;105300;1268;73299;-72
2022/08/15 02:07:25;;;;;;;32.20;28.40;;;;;;;18.02;100.00;98085.98;104988;1271;61249;-73
2022/08/15 02:09:54;;;;;;;32.40;28.90;;;;;;;17.99;100.00;98089.78;105360;1269;61846;-73
2022/08/15 02:12:29;;;;;;;34.60;28.50;;;;;;;17.97;100.00;98089.51;104965;1271;75502;-72
2022/08/15 02:14:57;;;;;;;31.10;27.60;;;;;;;17.94;100.00;98087.13;105225;1269;68748;-73
2022/08/15 02:17:25;;;;;;;33.50;28.10;;;;;;;17.92;100.00;98087.98;105241;1268;74269;-73
2022/08/15 02:19:52;;;;;;;34.10;29.50;;;;;;;17.89;100.00;98083.02;105194;1268;61332;-72
2022/08/15 02:22:22;;;;;;;34.50;29.70;;;;;;;17.87;100.00;98080.45;104937;1269;61172;-72
2022/08/15 02:24:49;;;;;;;35.70;29.70;;;;;;;17.85;100.00;98077.24;105384;1268;75754;-72
2022/08/15 02:27:16;;;;;;;35.10;29.60;;;;;;;17.83;100.00;98074.35;105239;1269;70134;-71
2022/08/15 02:29:43;;;;;;;37.50;30.10;;;;;;;17.83;100.00;98074.63;105267;1268;74064;-71
2022/08/15 02:32:16;;;;;;;38.00;30.30;;;;;;;17.81;100.00;98082.34;105242;1268;61335;-71
2022/08/15 02:34:46;;;;;;;35.30;30.10;;;;;;;17.80;100.00;98081.21;105216;1268;61288;-70
2022/08/15 02:37:18;;;;;;;35.50;30.30;;;;;;;17.77;100.00;98083.09;105265;1268;75310;-72
2022/08/15 02:39:49;;;;;;;39.70;31.30;;;;;;;17.77;100.00;98087.42;105340;1268;67437;-70
2022/08/15 02:42:17;;;;;;;36.50;31.90;;;;;;;17.76;100.00;98081.77;105308;1269;73162;-71
2022/08/15 02:44:44;;;;;;;37.80;31.20;;;;;;;17.75;100.00;98074.90;105275;1268;61301;-71
2022/08/15 02:47:14;;;;;;;34.50;29.40;;;;;;;17.73;100.00;98074.86;105308;1268;61400;-71
2022/08/15 02:49:45;;;;;;;37.50;30.50;;;;;;;17.73;100.00;98069.92;105241;1269;76188;-72
2022/08/15 02:52:12;;;;;;;35.10;29.80;;;;;;;17.71;100.00;98065.11;105264;1268;70274;-72
2022/08/15 02:54:39;;;;;;;34.70;28.90;;;;;;;17.68;100.00;98061.77;104963;1271;73669;-73
2022/08/15 02:57:08;;;;;;;36.10;29.90;;;;;;;17.67;100.00;98059.66;105345;1268;61269;-74
2022/08/15 02:59:35;;;;;;;39.00;29.80;;;;;;;17.64;100.00;98055.27;105440;1268;61948;-74
2022/08/15 03:02:01;;;;;;;35.20;31.40;;;;;;;17.62;100.00;98053.66;105001;1271;73551;-73
2022/08/15 03:04:30;;;;;;;33.90;29.80;;;;;;;17.60;100.00;98053.60;105306;1269;69300;-74
2022/08/15 03:06:57;;;;;;;38.60;31.80;;;;;;;17.57;100.00;98050.27;105246;1268;73277;-72
2022/08/15 03:09:24;;;;;;;38.00;30.20;;;;;;;17.55;100.00;98051.58;105098;1269;61354;-72
2022/08/15 03:11:50;;;;;;;38.80;31.80;;;;;;;17.52;100.00;98045.64;105242;1269;61207;-71
2022/08/15 03:14:20;;;;;;;47.90;42.80;;;;;;;17.49;100.00;98043.85;105220;1268;74346;-71
2022/08/15 03:16:48;;;;;;;42.80;38.30;;;;;;;17.46;100.00;98040.59;105252;1268;70170;-71
2022/08/15 03:19:21;;;;;;;37.70;32.00;;;;;;;17.42;100.00;98045.27;105079;1271;73168;-72
2022/08/15 03:21:48;;;;;;;35.70;31.60;;;;;;;17.37;100.00;98046.52;105232;1269;61391;-72
2022/08/15 03:24:18;;;;;;;38.70;34.40;;;;;;;17.34;100.00;98048.80;105017;1268;61307;-72
2022/08/15 03:26:46;;;;;;;39.20;33.10;;;;;;;17.32;100.00;98042.81;104955;1271;76217;-71
2022/08/15 03:29:16;;;;;;;37.60;30.40;;;;;;;17.31;100.00;98039.89;105275;1268;70092;-71
2022/08/15 03:31:48;;;;;;;40.80;32.30;;;;;;;17.28;100.00;98037.46;105421;1271;73194;-72
2022/08/15 03:34:18;;;;;;;37.40;29.80;;;;;;;17.28;100.00;98036.98;105079;1271;61457;-71
2022/08/15 03:36:46;;;;;;;35.30;30.60;;;;;;;17.27;100.00;98040.33;105315;1271;61790;-73
2022/08/15 03:39:14;;;;;;;37.80;32.00;;;;;;;17.25;100.00;98040.70;105262;1270;75874;-72
2022/08/15 03:41:42;;;;;;;38.40;31.80;;;;;;;17.24;100.00;98044.16;105016;1271;70151;-72
2022/08/15 03:44:10;;;;;;;38.50;30.90;;;;;;;17.24;100.00;98044.90;105238;1271;74329;-72
2022/08/15 03:46:38;;;;;;;37.30;31.70;;;;;;;17.25;100.00;98044.00;105209;1270;61236;-71
2022/08/15 03:49:06;;;;;;;38.60;31.00;;;;;;;17.24;100.00;98044.06;105082;1272;61354;-72
2022/08/15 03:51:32;;;;;;;38.40;31.30;;;;;;;17.24;100.00;98045.97;105250;1269;76063;-72
2022/08/15 03:54:00;;;;;;;38.50;30.80;;;;;;;17.26;100.00;98049.63;105207;1271;69436;-72
2022/08/15 03:56:30;;;;;;;38.60;31.80;;;;;;;17.29;100.00;98046.55;105360;1271;73782;-73
2022/08/15 03:58:58;;;;;;;38.30;30.70;;;;;;;17.33;100.00;98047.56;105263;1270;61259;-73
2022/08/15 04:01:29;;;;;;;33.70;29.00;;;;;;;17.42;100.00;98046.30;105212;1268;61480;-72
2022/08/15 04:03:57;;;;;;;34.80;28.30;;;;;;;17.65;100.00;98045.04;105232;1271;76289;-73
2022/08/15 04:06:29;;;;;;;32.30;27.70;;;;;;;17.85;100.00;98048.07;104969;1271;70096;-73
2022/08/15 04:08:57;;;;;;;33.40;28.20;;;;;;;17.95;100.00;98046.61;105230;1271;74787;-72
2022/08/15 04:11:27;;;;;;;33.10;27.40;;;;;;;18.07;100.00;98047.27;105335;1271;61144;-72
2022/08/15 04:13:54;;;;;;;29.60;25.30;;;;;;;18.51;100.00;98043.48;105141;1272;61329;-72
2022/08/15 04:16:21;;;;;;;25.90;23.40;;;;;;;19.02;100.00;98048.25;105210;1271;75101;-72
2022/08/15 04:18:48;;;;;;;23.60;21.10;;;;;;;19.40;100.00;98052.42;105354;1271;68825;-72
2022/08/15 04:21:15;;;;;;;23.30;21.10;;;;;;;19.59;100.00;98054.27;104966;1273;73290;-72
2022/08/15 04:23:45;;;;;;;23.20;20.70;;;;;;;19.60;100.00;98054.70;104961;1271;61393;-72
2022/08/15 04:26:13;;;;;;;25.30;22.70;;;;;;;19.42;100.00;98054.52;105379;1268;61821;-72
2022/08/15 04:28:40;;;;;;;26.80;22.80;;;;;;;19.37;100.00;98055.08;105371;1268;75111;-73
2022/08/15 04:31:09;;;;;;;24.60;22.20;;;;;;;19.38;100.00;98049.21;105267;1268;68827;-73
2022/08/15 04:33:36;;;;;;;28.30;22.90;;;;;;;19.42;100.00;98055.62;105280;1268;73419;-73
2022/08/15 04:36:12;;;;;;;25.70;23.20;;;;;;;19.30;100.00;98060.07;105229;1268;61361;-73
2022/08/15 04:38:44;;;;;;;28.10;24.60;;;;;;;19.17;100.00;98059.39;105240;1268;61374;-73
2022/08/15 04:41:11;;;;;;;26.40;23.70;;;;;;;19.18;100.00;98059.06;105234;1268;76068;-73
2022/08/15 04:43:41;;;;;;;28.10;24.40;;;;;;;19.14;100.00;98059.79;105427;1268;68797;-72
2022/08/15 04:46:09;;;;;;;29.50;24.80;;;;;;;19.08;100.00;98069.98;105021;1272;74557;-72
2022/08/15 04:48:35;;;;;;;28.70;25.50;;;;;;;19.02;100.00;98074.28;105249;1268;61376;-72
2022/08/15 04:51:03;;;;;;;30.20;24.70;;;;;;;18.98;100.00;98071.77;105133;1271;61534;-73
2022/08/15 04:53:33;;;;;;;27.00;24.20;;;;;;;18.98;100.00;98066.33;105261;1268;75122;-73
2022/08/15 04:56:01;;;;;;;;;;;;;;;18.97;100.00;98066.11;105317;1268;68865;-71
2022/08/15 04:58:28;;;;;;;29.10;25.50;;;;;;;19.01;100.00;98065.78;105272;1268;72851;-72
2022/08/15 05:00:55;;;;;;;26.80;23.90;;;;;;;19.10;100.00;98069.48;105216;1269;61237;-73
2022/08/15 05:03:22;;;;;;;29.70;24.70;;;;;;;19.15;100.00;98068.08;105250;1268;61286;-72
2022/08/15 05:05:56;;;;;;;27.30;24.40;;;;;;;19.16;100.00;98065.47;105217;1268;76065;-72
2022/08/15 05:08:25;;;;;;;28.50;25.40;;;;;;;19.19;100.00;98063.86;105225;1268;70435;-72
2022/08/15 05:11:00;;;;;;;29.80;24.20;;;;;;;19.23;100.00;98068.55;105339;1268;74196;-73
2022/08/15 05:13:30;;;;;;;31.40;27.40;;;;;;;19.16;100.00;98073.23;105202;1268;61356;-73
2022/08/15 05:16:00;;;;;;;;;;;;;;;19.16;100.00;98074.32;105321;1268;61825;-72
2022/08/15 05:18:27;;;;;;;32.90;28.50;;;;;;;19.19;100.00;98071.49;104970;1271;75463;-73
2022/08/15 05:20:55;;;;;;;31.70;27.30;;;;;;;19.19;100.00;98069.23;105336;1268;68290;-73
2022/08/15 05:23:24;;;;;;;39.20;28.30;;;;;;;19.18;100.00;98071.49;105191;1271;74327;-73
2022/08/15 05:25:57;;;;;;;35.90;29.60;;;;;;;19.20;100.00;98075.06;105274;1268;61307;-72
2022/08/15 05:28:24;;;;;;;38.80;29.00;;;;;;;19.22;100.00;98074.69;105286;1269;61829;-73
2022/08/15 05:30:52;;;;;;;46.20;30.60;;;;;;;19.24;100.00;98073.31;105227;1271;74209;-73
2022/08/15 05:33:25;;;;;;;44.20;30.90;;;;;;;19.27;100.00;98072.66;105307;1269;68708;-73
2022/08/15 05:35:56;;;;;;;41.50;31.40;;;;;;;19.33;100.00;98074.09;105240;1268;73280;-73
2022/08/15 05:38:40;;;;;;;45.00;32.70;;;;;;;19.37;100.00;98073.98;105245;1268;61297;-72
2022/08/15 05:41:22;;;;;;;45.00;31.90;;;;;;;19.44;100.00;98073.20;105353;1268;61188;-72
2022/08/15 05:44:01;;;;;;;43.10;31.50;;;;;;;19.53;100.00;98072.27;104975;1272;75177;-72
2022/08/15 05:46:56;;;;;;;46.30;31.00;;;;;;;19.58;100.00;98069.52;105398;1271;70157;-72
2022/08/15 05:49:34;;;;;;;46.20;32.30;;;;;;;19.62;100.00;98071.70;104708;1277;74333;-73
2022/08/15 05:52:04;;;;;;;43.80;30.80;;;;;;;19.66;100.00;98075.95;104700;1276;61394;-73
2022/08/15 05:54:52;;;;;;;46.80;31.70;;;;;;;19.70;100.00;98074.23;104487;1277;61354;-73
2022/08/15 05:57:27;;;;;;;44.60;29.70;;;;;;;19.78;100.00;98074.06;104692;1277;75246;-72
2022/08/15 06:00:04;;;;;;;42.70;29.50;;;;;;;19.78;100.00;98078.94;104672;1277;69759;-73
2022/08/15 06:02:34;;;;;;;47.70;30.60;;;;;;;19.77;100.00;98085.63;104419;1277;73233;-72
2022/08/15 06:05:08;;;;;;;46.50;30.80;;;;;;;19.80;100.00;98085.34;104676;1277;61461;-72
2022/08/15 06:07:35;;;;;;;42.60;30.00;;;;;;;19.82;100.00;98086.58;104524;1277;61399;-71
2022/08/15 06:10:06;;;;;;;38.80;27.40;;;;;;;19.89;100.00;98088.21;104688;1276;76375;-72
2022/08/15 06:12:38;;;;;;;37.40;27.80;;;;;;;19.94;100.00;98085.19;104754;1277;69918;-73
2022/08/15 06:15:15;;;;;;;38.60;27.30;;;;;;;19.99;100.00;98088.32;104736;1277;72633;-73
2022/08/15 06:17:46;;;;;;;38.00;27.00;;;;;;;20.02;100.00;98089.66;104701;1277;61469;-73
2022/08/15 06:20:22;;;;;;;39.60;27.90;;;;;;;20.04;100.00;98087.05;104804;1277;61454;-73
2022/08/15 06:23:05;;;;;;;37.60;28.10;;;;;;;20.09;100.00;98087.40;104508;1277;75228;-73
2022/08/15 06:25:41;;;;;;;34.30;24.10;;;;;;;20.22;100.00;98088.95;104790;1271;69229;-72
2022/08/15 06:28:48;;;;;;;28.70;23.40;;;;;;;20.28;100.00;98088.72;105255;1271;73459;-72
2022/08/15 06:31:20;;;;;;;29.70;23.60;;;;;;;20.36;100.00;98087.15;105229;1269;62737;-73
2022/08/15 06:33:59;;;;;;;29.20;22.90;;;;;;;20.58;100.00;98083.05;105218;1271;62263;-73
2022/08/15 06:36:54;;;;;;;24.90;21.20;;;;;;;20.94;100.00;98084.44;105240;1271;75219;-72
2022/08/15 06:39:45;;;;;;;25.20;21.90;;;;;;;21.11;100.00;98086.26;105247;1271;69173;-73
2022/08/15 06:42:41;;;;;;;23.40;20.90;;;;;;;21.41;100.00;98086.54;105190;1271;73169;-72
2022/08/15 06:45:21;;;;;;;24.50;21.90;;;;;;;21.71;100.00;98091.12;104559;1277;61304;-72
2022/08/15 06:47:53;;;;;;;23.50;21.00;;;;;;;21.82;100.00;98096.73;104666;1277;61885;-73
2022/08/15 06:50:36;;;;;;;24.40;21.70;;;;;;;21.81;100.00;98095.00;104680;1277;63435;-72
2022/08/15 06:53:13;;;;;;;24.60;21.30;;;;;;;21.78;100.00;98095.17;104738;1277;69167;-72
2022/08/15 06:55:51;;;;;;;26.50;22.80;;;;;;;21.84;100.00;98102.83;104703;1277;73355;-73
2022/08/15 06:58:30;;;;;;;25.80;22.90;;;;;;;21.83;100.00;98112.81;104719;1277;61625;-72
2022/08/15 07:01:18;;;;;;;26.00;23.20;;;;;;;21.66;100.00;98108.68;104716;1277;61367;-72
2022/08/15 07:03:56;;;;;;;27.00;24.10;;;;;;;21.50;100.00;98108.57;104643;1277;75340;-74
2022/08/15 07:06:54;;;;;;;33.20;25.50;;;;;;;21.40;100.00;98111.85;104721;1277;69272;-75
2022/08/15 07:09:57;;;;;;;33.00;28.10;;;;;;;21.40;100.00;98108.07;103931;1285;73429;-75
2022/08/15 07:12:42;;;;;;;32.80;28.30;;;;;;;21.42;100.00;98108.12;103925;1285;61381;-75
2022/08/15 07:15:29;;;;;;;35.70;27.60;;;;;;;21.50;100.00;98107.23;103793;1285;61456;-73
2022/08/15 07:18:02;;;;;;;31.60;27.70;;;;;;;21.58;100.00;98105.81;103980;1285;74130;-74
2022/08/15 07:20:29;;;;;;;30.60;27.30;;;;;;;21.69;100.00;98103.77;103946;1285;69223;-73
2022/08/15 07:22:55;;;;;;;34.20;28.60;;;;;;;21.80;100.00;98103.00;104283;1278;61456;-72
2022/08/15 07:25:28;;;;;;;33.00;27.60;;;;;;;21.90;100.00;98106.11;104560;1277;61825;-73
2022/08/15 07:28:03;;;;;;;31.60;26.90;;;;;;;21.92;100.00;98104.59;104578;1277;61224;-73
2022/08/15 07:30:44;;;;;;;27.20;24.30;;;;;;;21.90;100.00;98104.86;104598;1277;76388;-73
2022/08/15 07:33:50;;;;;;;25.70;23.00;;;;;;;22.00;100.00;98110.20;104556;1277;69266;-73
2022/08/15 07:36:24;;;;;;;24.70;22.10;;;;;;;22.13;100.00;98110.81;103784;1285;72932;-72
2022/08/15 07:38:52;;;;;;;24.70;22.10;;;;;;;22.29;100.00;98109.39;104108;1284;61246;-73
2022/08/15 07:41:30;;;;;;;25.10;22.40;;;;;;;22.36;100.00;98106.98;104152;1284;61316;-73
2022/08/15 07:43:59;;;;;;;23.20;21.00;;;;;;;22.37;100.00;98105.67;104023;1284;75305;-71
2022/08/15 07:46:40;;;;;;;23.60;21.20;;;;;;;22.32;100.00;98109.82;104322;1277;70521;-73
2022/08/15 07:49:20;;;;;;;25.20;22.50;;;;;;;22.39;100.00;98108.36;104740;1277;74326;-79
2022/08/15 07:52:03;;;;;;;25.20;22.60;;;;;;;22.49;100.00;98107.71;104886;1277;61276;-74
2022/08/15 07:54:32;;;;;;;25.10;22.30;;;;;;;22.57;100.00;98105.58;104800;1277;62090;-74
2022/08/15 07:57:02;;;;;;;26.00;23.20;;;;;;;22.55;100.00;98104.14;104739;1277;75138;-73
2022/08/15 07:59:35;;;;;;;26.10;23.10;;;;;;;22.57;100.00;98105.53;104772;1277;70195;-74
2022/08/15 08:02:14;;;;;;;25.70;23.00;;;;;;;22.60;100.00;98103.05;104752;1277;74590;-74
2022/08/15 08:04:40;;;;;;;24.70;22.10;;;;;;;22.67;100.00;98102.36;104532;1277;61273;-73
2022/08/15 08:07:23;;;;;;;24.20;21.50;;;;;;;22.77;100.00;98102.79;104810;1277;61261;-72
2022/08/15 08:09:55;;;;;;;26.60;22.70;;;;;;;22.84;100.00;98101.89;104785;1277;75615;-73
2022/08/15 08:12:30;;;;;;;29.10;24.80;;;;;;;22.82;100.00;98107.23;104557;1277;69263;-73
2022/08/15 08:15:06;;;;;;;30.40;24.20;;;;;;;22.86;100.00;98107.30;105200;1271;72077;-73
2022/08/15 08:17:42;;;;;;;30.20;24.00;;;;;;;22.99;100.00;98109.36;105235;1269;61281;-73
2022/08/15 08:20:23;;;;;;;25.80;23.00;;;;;;;23.18;100.00;98108.77;105235;1272;61275;-72
2022/08/15 08:22:55;;;;;;;24.10;21.50;;;;;;;23.40;100.00;98115.51;105262;1268;75363;-73
2022/08/15 08:25:56;;;;;;;27.30;23.50;;;;;;;23.66;100.00;98111.45;105251;1271;69300;-74
2022/08/15 08:28:38;;;;;;;26.00;23.30;;;;;;;23.82;100.00;98108.84;104653;1278;73239;-73
2022/08/15 08:31:23;;;;;;;26.70;23.80;;;;;;;23.88;100.00;98117.34;104596;1278;61579;-74
2022/08/15 08:34:17;;;;;;;25.90;23.30;;;;;;;23.98;100.00;98117.55;104320;1281;61830;-73
2022/08/15 08:37:21;;;;;;;25.90;23.10;;;;;;;24.02;100.00;98116.84;104516;1278;75140;-74
2022/08/15 08:43:32;;;;;;;27.60;24.70;;;;;;;24.53;100.00;98112.34;104536;1278;74514;-72
2022/08/15 08:46:06;;;;;;;27.20;24.20;;;;;;;24.86;100.00;98109.08;104587;1278;61281;-75
2022/08/15 08:48:41;;;;;;;26.80;24.10;;;;;;;24.87;100.00;98108.85;104528;1278;61333;-73
2022/08/15 08:51:48;;;;;;;25.60;22.90;;;;;;;24.82;100.00;98107.51;104544;1278;74852;-73
2022/08/15 08:54:27;;;;;;;24.90;22.30;;;;;;;25.28;100.00;98103.10;104551;1278;68545;-73
2022/08/15 08:56:58;;;;;;;24.70;22.30;;;;;;;25.46;100.00;98101.27;104529;1277;73291;-73
2022/08/15 08:59:31;;;;;;;25.20;22.40;;;;;;;25.38;100.00;98103.25;104485;1277;61419;-74
2022/08/15 09:02:02;;;;;;;25.80;23.10;;;;;;;25.23;100.00;98099.91;104771;1278;61507;-73
2022/08/15 09:04:46;;;;;;;24.10;21.70;;;;;;;25.12;100.00;98099.15;104697;1278;75149;-74
2022/08/15 09:07:20;;;;;;;24.50;21.80;;;;;;;24.99;100.00;98102.80;105246;1271;69252;-73
2022/08/15 09:09:49;;;;;;;25.90;23.30;;;;;;;24.83;100.00;98103.67;104989;1274;72600;-73
2022/08/15 09:15:21;;;;;;;26.60;23.80;;;;;;;24.74;100.00;98097.52;105302;1271;61795;-73
2022/08/15 09:17:53;;;;;;;25.80;23.10;;;;;;;24.88;100.00;98091.63;105287;1271;76236;-74
2022/08/15 09:20:26;;;;;;;23.80;21.60;;;;;;;24.99;100.00;98088.51;105282;1273;69645;-73
2022/08/15 09:22:55;;;;;;;24.50;22.10;;;;;;;25.14;100.00;98089.02;105266;1269;73157;-73
2022/08/15 09:25:24;;;;;;;23.70;21.40;;;;;;;25.33;100.00;98082.05;105296;1271;61361;-73
2022/08/15 09:27:54;;;;;;;24.50;21.30;;;;;;;25.55;100.00;98081.05;105386;1271;61371;-73
2022/08/15 09:30:21;;;;;;;26.50;23.90;;;;;;;25.73;100.00;98082.36;105294;1271;75749;-72
2022/08/15 09:32:53;;;;;;;27.00;24.30;;;;;;;25.73;100.00;98082.14;105324;1269;68868;-74
2022/08/15 09:35:38;;;;;;;25.10;22.50;;;;;;;25.68;100.00;98078.11;105257;1271;73123;-73
2022/08/15 09:38:09;;;;;;;25.30;23.00;;;;;;;25.69;100.00;98077.26;105269;1270;61374;-73
2022/08/15 09:41:01;;;;;;;25.80;23.30;;;;;;;25.64;100.00;98076.51;105225;1272;61243;-74
2022/08/15 09:43:57;;;;;;;26.00;22.90;;;;;;;25.65;100.00;98072.08;105227;1270;75118;-74
2022/08/15 09:46:31;;;;;;;26.10;23.40;;;;;;;25.71;100.00;98076.95;105275;1271;69314;-75
2022/08/15 09:48:59;;;;;;;25.30;22.70;;;;;;;25.68;100.00;98079.14;104302;1271;1363886;-73
2022/08/15 09:51:55;;;;;;;24.10;21.80;;;;;;;25.62;100.00;98075.35;105343;1271;61360;-73
2022/08/15 09:54:24;;;;;;;24.90;22.30;;;;;;;25.68;100.00;98075.05;105319;1271;61630;-74
2022/08/15 09:57:31;;;;;;;22.80;20.70;;;;;;;25.77;100.00;98070.60;105389;1271;74690;-73
2022/08/15 10:00:17;;;;;;;24.70;22.40;;;;;;;25.79;100.00;98068.07;105267;1271;70140;-72
2022/08/15 10:02:48;;;;;;;26.30;23.70;;;;;;;25.84;100.00;98067.63;105311;1271;74605;-74
2022/08/15 10:05:24;;;;;;;25.30;22.60;;;;;;;25.90;100.00;98066.95;105383;1272;61510;-72
2022/08/15 10:07:53;;;;;;;24.00;21.50;;;;;;;25.99;100.00;98062.38;105351;1270;61367;-72
2022/08/15 10:10:23;;;;;;;22.40;20.20;;;;;;;26.02;100.00;98062.77;105271;1272;75919;-71
2022/08/15 10:13:38;;;;;;;23.40;21.00;;;;;;;26.03;100.00;98063.88;105267;1271;70273;-73
2022/08/15 10:16:41;;;;;;;21.10;19.10;;;;;;;26.08;100.00;98064.13;104672;1278;74152;-73
2022/08/15 10:19:29;;;;;;;23.20;20.90;;;;;;;26.18;100.00;98058.87;104699;1277;61779;-72
2022/08/15 10:22:02;;;;;;;23.10;20.20;;;;;;;26.27;100.00;98053.96;104676;1277;61352;-73
2022/08/15 10:24:36;;;;;;;21.70;19.60;;;;;;;26.39;100.00;98052.24;104335;1281;74643;-74
2022/08/15 10:27:07;;;;;;;22.90;20.50;;;;;;;26.41;100.00;98048.83;104553;1280;70083;-73
2022/08/15 10:29:36;;;;;;;24.70;22.00;;;;;;;26.57;100.00;98050.90;104680;1277;74357;-72
2022/08/15 10:32:04;;;;;;;21.00;19.10;;;;;;;26.68;100.00;98045.96;104838;1277;61333;-73
2022/08/15 10:34:37;;;;;;;20.30;18.30;;;;;;;26.78;100.00;98037.67;104319;1281;61837;-73
2022/08/15 10:37:15;;;;;;;20.90;18.80;;;;;;;26.87;100.00;98043.61;104650;1277;76004;-74
2022/08/15 10:39:54;;;;;;;21.20;18.90;;;;;;;26.90;100.00;98039.66;104668;1278;70080;-73
2022/08/15 10:42:37;;;;;;;23.20;20.20;;;;;;;27.02;100.00;98041.44;104694;1277;74441;-72
2022/08/15 10:45:24;;;;;;;21.90;19.70;;;;;;;27.14;100.00;98038.83;104715;1278;61392;-73
2022/08/15 10:48:09;;;;;;;19.60;17.70;;;;;;;27.25;100.00;98039.45;104689;1277;61236;-73
2022/08/15 10:51:01;;;;;;;19.30;17.60;;;;;;;27.33;100.00;98036.84;104628;1278;76081;-72
2022/08/15 10:53:57;;;;;;;17.40;15.80;;;;;;;27.33;100.00;98041.00;105149;1271;69209;-73
2022/08/15 10:56:28;;;;;;;18.60;16.80;;;;;;;27.33;100.00;98045.94;105257;1270;73167;-73
2022/08/15 10:59:06;;;;;;;19.70;17.90;;;;;;;27.39;100.00;98045.64;105328;1271;61287;-73
2022/08/15 11:01:35;;;;;;;20.10;18.20;;;;;;;27.49;100.00;98039.85;105276;1271;61309;-73
2022/08/15 11:04:13;;;;;;;22.40;18.90;;;;;;;27.61;100.00;98043.33;105259;1271;76356;-73
2022/08/15 11:06:46;;;;;;;19.10;17.10;;;;;;;27.70;100.00;98043.33;105269;1271;68717;-74
2022/08/15 11:09:17;;;;;;;19.70;17.60;;;;;;;27.86;100.00;98041.39;105363;1271;73167;-73
2022/08/15 11:11:53;;;;;;;18.50;16.70;;;;;;;28.00;100.00;98040.73;105259;1271;61210;-72
2022/08/15 11:14:27;;;;;;;18.10;16.30;;;;;;;28.00;100.00;98039.04;105311;1269;61036;-72
2022/08/15 11:16:56;;;;;;;16.50;15.10;;;;;;;27.95;100.00;98034.49;105321;1270;74573;-73
2022/08/15 11:19:28;;;;;;;18.90;17.10;;;;;;;27.81;100.00;98031.39;105284;1270;70325;-73
2022/08/15 11:21:58;;;;;;;18.50;16.60;;;;;;;27.79;100.00;98028.52;105291;1271;74290;-72
2022/08/15 11:24:33;;;;;;;17.90;16.00;;;;;;;27.84;100.00;98028.80;105239;1271;61382;-73
2022/08/15 11:27:17;;;;;;;16.90;15.20;;;;;;;27.87;100.00;98022.95;105444;1271;61274;-72
2022/08/15 11:29:46;;;;;;;15.80;14.30;;;;;;;27.93;100.00;98021.79;105308;1270;75640;-72
2022/08/15 11:32:33;;;;;;;13.40;12.20;;;;;;;27.98;100.00;98020.33;105349;1271;68709;-73
2022/08/15 11:35:03;;;;;;;16.80;15.10;;;;;;;28.06;100.00;98021.98;105315;1271;72965;-74
2022/08/15 11:37:38;;;;;;;17.20;15.60;;;;;;;28.06;100.00;98020.38;105303;1271;61299;-73
2022/08/15 11:40:26;;;;;;;16.80;15.20;;;;;;;27.99;100.00;98021.54;105284;1271;61271;-74
2022/08/15 11:42:54;;;;;;;16.10;14.50;;;;;;;28.04;100.00;98018.25;105100;1271;76102;-73